createdAt,value
2019-02-18T00:05:01.223Z,13.87
2019-02-18T00:10:08.854Z,12.79
2019-02-18T00:15:16.528Z,14.95
2019-02-18T00:20:24.162Z,14.44
2019-02-18T00:25:31.810Z,12.92
2019-02-18T00:30:39.459Z,15.61
2019-02-18T00:35:51.177Z,16.57
2019-02-18T00:40:48.805Z,16.17
2019-02-18T00:45:56.703Z,15.83
2019-02-18T00:51:04.384Z,13.74
2019-02-18T00:56:12.058Z,14.08
2019-02-18T01:01:20.156Z,16.36
2019-02-18T01:06:27.826Z,15.26
2019-02-18T01:11:35.437Z,16.62
2019-02-18T01:16:43.110Z,16.03
2019-02-18T01:21:50.788Z,15.25
2019-02-18T01:26:58.510Z,15.74
2019-02-18T01:32:06.160Z,15.91
2019-02-18T01:37:13.864Z,16.90
2019-02-18T01:42:21.505Z,16.95
2019-02-18T01:47:29.269Z,16.81
2019-02-18T01:52:36.939Z,15.63
2019-02-18T01:57:44.682Z,16.66
2019-02-18T02:02:52.327Z,17.25
2019-02-18T02:08:00.007Z,19.13
2019-02-18T02:13:07.624Z,16.85
2019-02-18T02:18:15.335Z,16.13
2019-02-18T02:23:22.946Z,17.31
2019-02-18T02:28:30.663Z,16.95
2019-02-18T02:33:38.326Z,15.66
2019-02-18T02:38:45.998Z,17.09
2019-02-18T02:43:53.617Z,17.75
2019-02-18T02:49:01.349Z,18.25
2019-02-18T02:54:08.987Z,18.63
2019-02-18T02:59:16.693Z,18.53
2019-02-18T03:04:24.356Z,20.06
2019-02-18T03:09:32.027Z,22.09
2019-02-18T03:14:39.665Z,20.51
2019-02-18T03:19:47.449Z,22.08
2019-02-18T03:24:55.093Z,20.69
2019-02-18T03:30:02.971Z,18.93
2019-02-18T03:35:10.646Z,18.84
2019-02-18T03:40:18.313Z,20.41
2019-02-18T03:45:25.945Z,20.65
2019-02-18T03:50:33.873Z,19.89
2019-02-18T03:55:41.496Z,19.06
2019-02-18T04:00:49.267Z,20.79
2019-02-18T04:05:56.915Z,19.73
2019-02-18T04:11:04.581Z,18.97
2019-02-18T04:16:12.245Z,18.02
2019-02-18T04:21:19.901Z,18.98
2019-02-18T04:26:27.518Z,21.15
2019-02-18T04:31:35.464Z,19.58
2019-02-18T04:36:43.089Z,17.96
2019-02-18T04:41:50.781Z,19.24
2019-02-18T04:46:58.430Z,16.95
2019-02-18T04:52:06.150Z,19.72
2019-02-18T04:57:13.778Z,19.91
2019-02-18T05:02:21.477Z,20.77
2019-02-18T05:07:29.176Z,19.23
2019-02-18T05:12:36.879Z,20.38
2019-02-18T05:17:44.565Z,21.64
2019-02-18T05:22:52.500Z,20.94
2019-02-18T05:28:00.503Z,19.69
2019-02-18T05:33:08.169Z,19.72
2019-02-18T05:38:15.784Z,18.68
2019-02-18T05:43:23.417Z,21.70
2019-02-18T05:48:33.812Z,22.24
2019-02-18T05:53:38.224Z,24.50
2019-02-18T05:58:45.844Z,22.70
2019-02-18T06:03:53.484Z,22.31
2019-02-18T06:09:01.165Z,24.65
2019-02-18T06:14:08.824Z,23.59
2019-02-18T06:19:16.441Z,23.44
2019-02-18T06:24:24.118Z,21.35
2019-02-18T06:29:31.741Z,24.96
2019-02-18T06:34:39.410Z,24.90
2019-02-18T06:39:47.699Z,23.65
2019-02-18T06:44:55.352Z,26.64
2019-02-18T06:50:03.048Z,25.77
2019-02-18T06:55:10.709Z,24.73
2019-02-18T07:00:18.350Z,24.03
2019-02-18T07:10:32.153Z,20.58
2019-02-18T07:15:39.792Z,24.17
2019-02-18T07:20:47.449Z,30.89
2019-02-18T07:25:55.198Z,26.85
2019-02-18T07:31:03.008Z,27.13
2019-02-18T07:36:10.629Z,26.28
2019-02-18T07:41:18.312Z,24.50
2019-02-18T07:46:26.163Z,23.04
2019-02-18T07:51:33.810Z,23.48
2019-02-18T07:56:41.469Z,22.19
2019-02-18T08:01:49.161Z,22.76
2019-02-18T08:06:56.805Z,22.27
2019-02-18T08:12:04.457Z,25.28
2019-02-18T08:17:12.183Z,21.18
2019-02-18T08:22:19.841Z,20.89
2019-02-18T08:27:27.833Z,18.73
2019-02-18T08:32:35.461Z,20.47
2019-02-18T08:37:43.177Z,18.14
2019-02-18T08:42:50.889Z,19.52
2019-02-18T08:47:58.450Z,22.41
2019-02-18T08:53:06.321Z,20.89
2019-02-18T08:58:13.956Z,17.90
2019-02-18T09:03:21.707Z,17.80
2019-02-18T09:08:29.378Z,18.71
2019-02-18T09:13:37.038Z,18.84
2019-02-18T09:18:44.676Z,18.51
2019-02-18T09:23:52.341Z,22.23
2019-02-18T09:28:59.984Z,18.06
2019-02-18T09:34:07.730Z,20.35
2019-02-18T09:39:15.356Z,18.75
2019-02-18T09:44:23.068Z,18.54
2019-02-18T09:49:37.441Z,19.84
2019-02-18T09:54:35.132Z,20.39
2019-02-18T09:59:42.780Z,19.49
2019-02-18T10:04:50.432Z,19.95
2019-02-18T10:09:58.069Z,18.89
2019-02-18T10:15:14.545Z,18.35
2019-02-18T10:20:12.160Z,19.45
2019-02-18T10:25:19.864Z,17.99
2019-02-18T10:30:27.490Z,19.69
2019-02-18T10:35:35.145Z,21.81
2019-02-18T10:40:42.852Z,20.24
2019-02-18T10:45:50.486Z,21.66
2019-02-18T10:50:58.369Z,19.35
2019-02-18T10:56:05.992Z,20.43
2019-02-18T11:01:13.749Z,20.98
2019-02-18T11:06:21.452Z,21.00
2019-02-18T11:11:29.085Z,19.33
2019-02-18T11:16:36.734Z,19.66
2019-02-18T11:21:44.568Z,20.82
2019-02-18T11:26:52.185Z,20.63
2019-02-18T11:31:59.898Z,20.04
2019-02-18T11:37:07.609Z,24.99
2019-02-18T11:42:15.316Z,21.68
2019-02-18T11:47:22.937Z,21.05
2019-02-18T11:52:30.723Z,20.07
2019-02-18T11:57:38.338Z,19.50
2019-02-18T12:02:45.998Z,21.96
2019-02-18T12:07:53.626Z,18.83
2019-02-18T12:13:01.315Z,20.34
2019-02-18T12:18:08.982Z,20.23
2019-02-18T12:23:16.667Z,19.19
2019-02-18T12:28:24.354Z,19.58
2019-02-18T12:33:32.052Z,20.59
2019-02-18T12:38:41.157Z,19.36
2019-02-18T12:43:46.901Z,17.05
2019-02-18T12:48:54.553Z,19.44
2019-02-18T12:54:05.135Z,18.89
2019-02-18T12:59:09.505Z,18.09
2019-02-18T13:04:17.226Z,18.35
2019-02-18T13:09:24.861Z,17.03
2019-02-18T13:14:32.587Z,18.54
2019-02-18T13:19:40.222Z,16.62
2019-02-18T13:24:47.879Z,15.15
2019-02-18T13:29:55.485Z,16.00
2019-02-18T13:35:03.153Z,13.88
2019-02-18T13:40:10.763Z,15.43
2019-02-18T13:45:18.454Z,17.18
2019-02-18T13:50:26.085Z,13.89
2019-02-18T13:55:34.078Z,15.36
2019-02-18T14:00:41.685Z,15.33
2019-02-18T14:05:49.405Z,17.61
2019-02-18T14:10:57.019Z,15.26
2019-02-18T14:16:04.724Z,15.91
2019-02-18T14:21:12.388Z,12.71
2019-02-18T14:26:20.042Z,15.14
2019-02-18T14:31:28.275Z,15.91
2019-02-18T14:36:35.928Z,13.78
2019-02-18T14:41:43.545Z,17.20
2019-02-18T14:46:51.259Z,19.09
2019-02-18T14:51:58.872Z,17.18
2019-02-18T14:57:13.903Z,18.49
2019-02-18T15:02:11.580Z,18.36
2019-02-18T15:07:19.279Z,17.11
2019-02-18T15:12:32.912Z,17.42
2019-02-18T15:17:34.072Z,16.69
2019-02-18T15:22:41.725Z,16.27
2019-02-18T15:27:49.518Z,18.16
2019-02-18T15:32:57.134Z,19.06
2019-02-18T15:38:04.988Z,18.22
2019-02-18T15:43:12.642Z,19.57
2019-02-18T15:48:20.338Z,20.36
2019-02-18T15:53:28.005Z,19.91
2019-02-18T15:58:35.730Z,20.21
2019-02-18T16:03:43.405Z,21.39
2019-02-18T16:08:50.666Z,21.17
2019-02-18T16:13:58.312Z,19.75
2019-02-18T16:19:05.960Z,25.08
2019-02-18T16:24:19.965Z,23.31
2019-02-18T16:29:20.868Z,21.64
2019-02-18T16:34:28.619Z,20.49
2019-02-18T16:39:36.276Z,22.69
2019-02-18T16:44:43.905Z,20.78
2019-02-18T16:49:52.310Z,21.76
2019-02-18T16:55:00.059Z,20.45
2019-02-18T17:00:07.734Z,21.86
2019-02-18T17:05:15.680Z,20.94
2019-02-18T17:10:23.369Z,23.68
2019-02-18T17:15:31.006Z,25.02
2019-02-18T17:20:38.677Z,25.23
2019-02-18T17:25:46.291Z,28.23
2019-02-18T17:30:53.999Z,24.56
2019-02-18T17:36:01.623Z,25.10
2019-02-18T17:41:09.360Z,26.40
2019-02-18T17:46:17.019Z,26.57
2019-02-18T17:51:24.692Z,26.03
2019-02-18T17:56:32.353Z,20.36
2019-02-18T18:01:40.392Z,23.78
2019-02-18T18:06:48.009Z,22.86
2019-02-18T18:11:55.669Z,26.40
2019-02-18T18:17:03.356Z,25.76
2019-02-18T18:22:11.159Z,23.02
2019-02-18T18:27:19.568Z,24.87
2019-02-18T18:32:26.860Z,28.12
2019-02-18T18:37:34.518Z,24.02
2019-02-18T18:42:42.244Z,26.52
2019-02-18T18:47:49.856Z,29.23
2019-02-18T18:52:57.613Z,29.87
2019-02-18T18:58:05.237Z,26.33
2019-02-18T19:03:12.937Z,27.99
2019-02-18T19:08:20.561Z,26.24
2019-02-18T19:13:28.350Z,24.96
2019-02-18T19:18:35.960Z,26.92
2019-02-18T19:23:43.640Z,33.10
2019-02-18T19:28:51.305Z,27.89
2019-02-18T19:33:58.999Z,30.04
2019-02-18T19:39:06.632Z,29.21
2019-02-18T19:44:14.350Z,29.28
2019-02-18T19:49:21.994Z,29.12
2019-02-18T19:54:29.664Z,28.10
2019-02-18T19:59:37.720Z,27.27
2019-02-18T20:04:45.436Z,28.80
2019-02-18T20:09:53.089Z,28.00
2019-02-18T20:15:00.820Z,30.71
2019-02-18T20:20:08.452Z,28.53
2019-02-18T20:25:16.112Z,28.61
2019-02-18T20:30:23.753Z,27.38
2019-02-18T20:35:31.485Z,27.80
2019-02-18T20:40:39.105Z,25.64
2019-02-18T20:45:46.801Z,29.58
2019-02-18T20:50:54.692Z,26.34
2019-02-18T20:56:02.326Z,26.17
2019-02-18T21:01:09.973Z,26.66
2019-02-18T21:06:17.924Z,24.36
2019-02-18T21:11:28.097Z,23.76
2019-02-18T21:16:25.830Z,24.91
2019-02-18T21:21:33.462Z,22.21
2019-02-18T21:26:47.481Z,23.65
2019-02-18T21:31:45.088Z,24.39
2019-02-18T21:36:52.824Z,23.92
2019-02-18T21:42:00.488Z,23.53
2019-02-18T21:47:08.185Z,22.82
2019-02-18T21:52:15.813Z,23.64
2019-02-18T21:57:24.040Z,23.93
2019-02-18T22:03:31.153Z,22.31
2019-02-18T22:08:28.762Z,23.61
2019-02-18T22:13:36.400Z,21.30
2019-02-18T22:18:44.116Z,21.79
2019-02-18T22:23:51.785Z,23.45
2019-02-18T22:28:59.440Z,23.43
2019-02-18T22:34:07.082Z,23.15
2019-02-18T22:39:14.761Z,23.48
2019-02-18T22:44:22.476Z,24.56
2019-02-18T22:49:30.100Z,23.72
2019-02-18T22:54:37.753Z,25.95
2019-02-18T22:59:45.400Z,24.80
2019-02-18T23:04:53.085Z,27.36
2019-02-18T23:10:00.723Z,26.06
2019-02-18T23:15:08.428Z,24.43
2019-02-18T23:20:16.044Z,27.79
2019-02-18T23:25:23.781Z,25.98
2019-02-18T23:30:31.404Z,24.52
2019-02-18T23:35:39.096Z,24.87
2019-02-18T23:40:46.740Z,27.23
2019-02-18T23:45:54.461Z,28.91
2019-02-18T23:51:02.106Z,29.51
2019-02-18T23:56:09.799Z,33.01
